createdAt,value
2022-08-23T03:44:15.947Z,15.00
2022-08-23T03:47:19.918Z,15.27
2022-08-23T03:50:27.867Z,12.80
2022-08-23T03:53:30.907Z,10.95
2022-08-23T03:56:37.576Z,8.65
2022-08-23T03:59:41.464Z,11.00
2022-08-23T04:02:44.259Z,10.43
2022-08-23T04:05:47.413Z,9.43
2022-08-23T04:08:50.269Z,13.00
2022-08-23T04:11:53.279Z,11.57
2022-08-23T04:14:56.050Z,10.65
2022-08-23T04:18:00.163Z,9.98
2022-08-23T04:21:07.486Z,14.65
2022-08-23T04:24:11.384Z,9.43
2022-08-23T04:27:15.759Z,14.00
2022-08-23T04:30:20.464Z,17.65
2022-08-23T04:33:23.221Z,14.38
2022-08-23T04:39:54.089Z,13.90
2022-08-23T04:42:57.823Z,20.23
2022-08-23T04:46:01.190Z,19.37
2022-08-23T04:49:06.133Z,16.30
2022-08-23T04:52:09.136Z,16.65
2022-08-23T04:55:13.247Z,14.55
2022-08-23T04:58:16.703Z,14.00
2022-08-23T05:01:19.726Z,14.85
2022-08-23T05:04:23.068Z,16.58
2022-08-23T05:07:30.994Z,13.45
2022-08-23T05:10:44.871Z,13.02
2022-08-23T05:13:47.749Z,14.70
2022-08-23T05:16:50.496Z,17.33
2022-08-23T05:19:53.443Z,15.07
2022-08-23T05:22:56.120Z,16.40
2022-08-23T05:25:59.991Z,12.73
2022-08-23T05:29:02.709Z,10.48
2022-08-23T05:32:07.312Z,13.93
2022-08-23T05:35:29.828Z,16.47
2022-08-23T05:38:53.478Z,17.73
2022-08-23T05:42:18.303Z,13.43
2022-08-23T05:45:41.676Z,16.62
2022-08-23T05:49:06.047Z,16.95
2022-08-23T05:52:30.725Z,13.55
2022-08-23T05:55:53.106Z,15.88
2022-08-23T05:59:17.170Z,13.20
2022-08-23T06:02:39.555Z,12.48
2022-08-23T06:06:03.270Z,11.70
2022-08-23T06:09:26.353Z,14.38
2022-08-23T06:12:49.070Z,12.52
2022-08-23T06:16:14.851Z,12.83
2022-08-23T06:19:18.616Z,13.95
2022-08-23T06:22:23.452Z,16.17
2022-08-23T06:25:26.407Z,17.75
2022-08-23T06:31:45.350Z,13.35
2022-08-23T06:34:47.960Z,12.95
2022-08-23T06:37:52.397Z,12.13
2022-08-23T06:44:03.964Z,12.50
2022-08-23T06:47:07.786Z,13.50
2022-08-23T06:50:11.501Z,10.88
2022-08-23T06:53:17.964Z,11.00
2022-08-23T06:56:22.224Z,9.57
2022-08-23T06:59:25.452Z,11.73
2022-08-23T07:02:28.501Z,10.43
2022-08-23T07:05:35.344Z,11.15
2022-08-23T07:08:38.546Z,11.00
2022-08-23T07:11:42.383Z,8.77
2022-08-23T07:14:45.399Z,8.15
2022-08-23T07:17:48.513Z,7.97
2022-08-23T07:20:59.807Z,10.30
2022-08-23T07:24:03.060Z,10.15
2022-08-23T07:27:07.322Z,9.45
2022-08-23T07:30:10.754Z,8.90
2022-08-23T07:33:13.802Z,8.85
2022-08-23T07:36:18.963Z,7.70
2022-08-23T07:39:23.772Z,8.30
2022-08-23T07:42:27.467Z,10.48
2022-08-23T07:45:30.623Z,13.45
2022-08-23T07:48:53.386Z,9.15
2022-08-23T07:51:58.830Z,7.07
2022-08-23T07:55:02.031Z,7.80
2022-08-23T07:58:05.221Z,7.18
2022-08-23T08:01:16.768Z,7.53
2022-08-23T08:04:20.756Z,7.75
2022-08-23T08:07:24.010Z,9.48
2022-08-23T08:10:27.459Z,7.37
2022-08-23T08:13:31.345Z,6.75
2022-08-23T08:16:40.283Z,7.37
2022-08-23T08:19:45.864Z,8.55
2022-08-23T08:22:58.706Z,10.75
2022-08-23T08:26:05.793Z,7.37
2022-08-23T08:29:12.003Z,7.47
2022-08-23T08:32:16.609Z,7.93
2022-08-23T08:35:19.655Z,7.18
2022-08-23T08:38:23.609Z,11.18
2022-08-23T08:41:54.732Z,7.72
2022-08-23T08:45:16.393Z,6.35
2022-08-23T08:51:35.791Z,7.25
2022-08-23T08:54:41.476Z,7.85
2022-08-23T08:57:47.294Z,5.78
2022-08-23T09:00:55.587Z,6.72
2022-08-23T09:04:02.100Z,11.02
2022-08-23T09:07:26.901Z,7.28
2022-08-23T09:10:50.106Z,8.32
2022-08-23T09:14:12.842Z,6.53
2022-08-23T09:17:20.951Z,6.80
2022-08-23T09:20:32.890Z,7.72
2022-08-23T09:23:43.188Z,5.10
2022-08-23T09:26:46.266Z,5.80
2022-08-23T09:29:58.291Z,6.80
2022-08-23T09:33:15.751Z,5.03
2022-08-23T09:36:22.484Z,7.15
2022-08-23T09:39:31.334Z,6.55
2022-08-23T09:42:39.627Z,6.35
2022-08-23T09:45:50.209Z,6.40
2022-08-23T09:48:58.887Z,6.80
2022-08-23T09:52:13.768Z,5.93
2022-08-23T09:55:54.759Z,5.10
2022-08-23T09:58:57.892Z,9.90
2022-08-23T10:02:02.438Z,8.48
2022-08-23T10:05:29.329Z,4.68
2022-08-23T10:08:38.500Z,4.72
2022-08-23T10:11:46.299Z,7.95
2022-08-23T10:14:49.475Z,5.25
2022-08-23T10:18:04.878Z,4.87
2022-08-23T10:21:24.276Z,5.07
2022-08-23T10:24:55.876Z,5.45
2022-08-23T10:28:39.580Z,4.87
2022-08-23T10:31:46.519Z,5.68
2022-08-23T10:34:57.398Z,5.03
2022-08-23T10:38:17.594Z,5.62
2022-08-23T10:41:21.919Z,6.25
2022-08-23T10:44:47.864Z,4.50
2022-08-23T10:48:13.205Z,8.95
2022-08-23T10:51:31.279Z,6.70
2022-08-23T10:54:46.883Z,5.30
2022-08-23T10:57:53.380Z,4.32
2022-08-23T11:00:57.770Z,4.40
2022-08-23T11:04:16.775Z,5.82
2022-08-23T11:07:21.683Z,4.03
2022-08-23T11:10:39.117Z,4.97
2022-08-23T11:13:52.824Z,4.00
2022-08-23T11:17:00.033Z,4.70
2022-08-23T11:20:09.917Z,5.57
2022-08-23T11:23:16.265Z,3.90
2022-08-23T11:26:36.791Z,6.18
2022-08-23T11:29:41.393Z,3.75
2022-08-23T11:32:49.153Z,5.03
2022-08-23T11:36:11.355Z,3.37
2022-08-23T11:39:19.663Z,5.03
2022-08-23T11:42:37.812Z,4.40
2022-08-23T11:45:49.545Z,4.75
2022-08-23T11:49:13.201Z,5.07
2022-08-23T11:52:15.782Z,3.45
2022-08-23T11:56:10.199Z,6.90
2022-08-23T11:59:32.138Z,3.28
2022-08-23T12:02:37.880Z,3.25
2022-08-23T12:06:09.183Z,3.20
2022-08-23T12:09:13.451Z,4.57
2022-08-23T12:12:38.778Z,4.20
2022-08-23T12:16:11.781Z,3.92
2022-08-23T12:19:39.936Z,5.40
2022-08-23T12:23:15.631Z,5.62
2022-08-23T12:26:31.284Z,4.15
2022-08-23T12:29:46.278Z,4.65
2022-08-23T12:33:17.760Z,4.60
2022-08-23T12:36:45.895Z,5.25
2022-08-23T12:39:52.725Z,4.45
2022-08-23T12:43:08.132Z,3.85
2022-08-23T12:46:11.819Z,4.35
2022-08-23T12:49:26.797Z,8.73
2022-08-23T12:52:32.660Z,4.97
2022-08-23T12:55:40.433Z,3.15
2022-08-23T12:58:48.347Z,3.37
2022-08-23T13:01:54.343Z,5.43
2022-08-23T13:05:03.808Z,3.67
2022-08-23T13:08:11.719Z,3.92
2022-08-23T13:11:20.470Z,2.97
2022-08-23T13:14:26.037Z,2.95
2022-08-23T13:17:38.739Z,8.75
2022-08-23T13:20:41.297Z,4.72
2022-08-23T13:23:45.089Z,4.05
2022-08-23T13:26:48.860Z,3.62
2022-08-23T13:30:01.474Z,2.95
2022-08-23T13:33:04.009Z,3.03
2022-08-23T13:36:21.338Z,3.50
2022-08-23T13:39:24.292Z,3.75
2022-08-23T13:42:34.085Z,5.60
2022-08-23T13:45:45.861Z,5.28
2022-08-23T13:48:54.511Z,4.28
2022-08-23T13:52:17.206Z,4.62
2022-08-23T13:55:23.968Z,3.92
2022-08-23T13:58:33.820Z,5.00
2022-08-23T14:01:36.877Z,6.75
2022-08-23T14:04:40.816Z,4.22
2022-08-23T14:07:46.137Z,3.42
2022-08-23T14:10:50.186Z,3.83
2022-08-23T14:13:52.907Z,5.55
2022-08-23T14:16:59.651Z,4.35
2022-08-23T14:23:29.547Z,3.33
2022-08-23T14:26:32.435Z,3.87
2022-08-23T14:29:35.529Z,5.78
2022-08-23T14:32:40.726Z,4.30
2022-08-23T14:35:44.099Z,2.92
2022-08-23T14:38:47.174Z,3.40
2022-08-23T14:41:53.091Z,4.53
2022-08-23T14:44:55.710Z,5.10
2022-08-23T14:47:58.582Z,9.27
2022-08-23T14:51:02.048Z,3.72
2022-08-23T14:54:07.895Z,3.28
2022-08-23T14:57:10.802Z,3.62
2022-08-23T15:00:14.348Z,5.45
2022-08-23T15:03:22.795Z,3.67
2022-08-23T15:06:25.719Z,3.92
2022-08-23T15:09:28.403Z,3.20
2022-08-23T15:15:54.928Z,8.25
